Time;durP1;ratioP1;P1;durP2;ratioP2;P2;SDS_P1;SDS_P2;PMS_P1;PMS_P2;Temp;Humidity;BMP_temperature;BMP_pressure;BME280_temperature;BME280_humidity;BME280_pressure;Samples;Min_cycle;Max_cycle;Signal;HPM_P1;HPM_P2
2022/12/07 00:00:29;;;;;;;36.83;21.33;;;;;;;3.13;100.00;100387.56;5090805;28;20410;-69
2022/12/07 00:02:55;;;;;;;34.60;22.23;;;;;;;3.13;100.00;100399.97;5089641;28;20051;-70
2022/12/07 00:05:20;;;;;;;35.33;22.05;;;;;;;3.10;100.00;100398.34;5091299;28;20484;-69
2022/12/07 00:07:46;;;;;;;33.40;21.00;;;;;;;3.09;100.00;100401.91;5091930;28;20051;-69
2022/12/07 00:10:11;;;;;;;33.97;20.73;;;;;;;3.09;100.00;100406.38;5089571;28;20028;-70
2022/12/07 00:12:37;;;;;;;30.73;20.65;;;;;;;3.10;100.00;100403.66;5092343;28;20501;-69
2022/12/07 00:15:03;;;;;;;29.13;19.85;;;;;;;3.08;100.00;100396.72;5090725;28;20040;-69
2022/12/07 00:17:33;;;;;;;30.35;18.98;;;;;;;3.09;100.00;100401.91;5089254;28;20028;-69
2022/12/07 00:19:58;;;;;;;29.45;19.60;;;;;;;3.00;100.00;100378.59;5087725;28;20154;-70
2022/12/07 00:22:24;;;;;;;26.02;17.73;;;;;;;3.01;100.00;100380.31;5088876;28;20495;-69
2022/12/07 00:24:49;;;;;;;30.75;19.88;;;;;;;2.84;100.00;100351.25;5087942;28;20119;-70
2022/12/07 00:27:15;;;;;;;28.35;18.88;;;;;;;2.99;100.00;100373.38;5087735;28;20024;-70
2022/12/07 00:29:40;;;;;;;33.03;18.95;;;;;;;2.97;100.00;100378.75;5092282;28;20044;-69
2022/12/07 00:32:05;;;;;;;28.50;17.60;;;;;;;2.92;100.00;100375.53;5091630;28;20027;-69
2022/12/07 00:34:31;;;;;;;26.83;17.52;;;;;;;2.78;100.00;100356.03;5091149;28;20036;-69
2022/12/07 00:36:56;;;;;;;25.45;16.65;;;;;;;2.75;100.00;100365.03;5092609;28;20115;-69
2022/12/07 00:39:22;;;;;;;28.92;17.58;;;;;;;2.84;100.00;100390.97;5097262;28;20042;-69
2022/12/07 00:41:47;;;;;;;29.55;17.98;;;;;;;2.74;100.00;100379.19;5092656;28;20516;-69
2022/12/07 00:44:13;;;;;;;29.77;17.83;;;;;;;2.57;100.00;100359.88;5093060;28;20056;-69
2022/12/07 00:46:38;;;;;;;30.33;18.98;;;;;;;2.55;100.00;100370.56;5097085;28;20031;-70
2022/12/07 00:49:04;;;;;;;26.50;17.65;;;;;;;2.35;100.00;100336.34;5092756;28;20024;-69
2022/12/07 00:51:29;;;;;;;27.98;18.77;;;;;;;2.54;100.00;100390.00;5092782;28;20020;-69
2022/12/07 00:53:55;;;;;;;28.33;18.17;;;;;;;2.50;100.00;100391.13;5093937;28;20020;-73
2022/12/07 00:56:23;;;;;;;29.55;18.35;;;;;;;2.45;100.00;100389.66;5090905;28;20472;-72
2022/12/07 00:58:53;;;;;;;30.17;18.92;;;;;;;2.39;100.00;100389.03;5093321;28;20032;-73
2022/12/07 01:01:19;;;;;;;30.00;18.98;;;;;;;2.33;100.00;100394.66;5092815;28;20036;-73
2022/12/07 01:03:44;;;;;;;29.15;18.02;;;;;;;2.13;100.00;100371.03;5109323;28;20387;-71
2022/12/07 01:06:14;;;;;;;30.27;19.63;;;;;;;2.15;100.00;100376.25;5096017;28;20107;-71
2022/12/07 01:08:40;;;;;;;32.65;18.25;;;;;;;2.09;100.00;100369.50;5094565;28;20024;-72
2022/12/07 01:11:07;;;;;;;28.23;18.33;;;;;;;2.14;100.00;100391.28;5095053;28;20032;-73
2022/12/07 01:13:34;;;;;;;28.58;18.27;;;;;;;2.10;100.00;100387.06;5092621;28;20119;-72
2022/12/07 01:16:01;;;;;;;27.33;17.67;;;;;;;1.99;100.00;100359.47;5093421;28;20379;-73
2022/12/07 01:18:28;;;;;;;28.50;18.23;;;;;;;2.08;100.00;100378.38;5095805;28;20059;-73
2022/12/07 01:21:01;;;;;;;29.17;17.20;;;;;;;2.14;100.00;100380.72;5092125;28;20494;-69
2022/12/07 01:23:27;;;;;;;25.55;17.00;;;;;;;1.98;100.00;100344.56;5093175;28;20027;-70
2022/12/07 01:25:57;;;;;;;26.30;16.23;;;;;;;1.93;100.00;100342.16;5090818;28;20101;-69
2022/12/07 01:28:23;;;;;;;25.60;16.73;;;;;;;1.83;100.00;100314.47;5092909;28;20063;-70
2022/12/07 01:31:16;;;;;;;23.77;16.33;;;;;;;2.12;100.00;100379.94;5091780;28;20067;-70
2022/12/07 01:33:44;;;;;;;26.25;15.40;;;;;;;1.85;100.00;100317.91;5089206;28;20051;-70
2022/12/07 01:36:21;;;;;;;27.70;16.95;;;;;;;1.97;100.00;100348.97;5094559;28;20032;-72
2022/12/07 01:38:51;;;;;;;24.85;15.50;;;;;;;2.08;100.00;100369.59;5093259;28;20048;-73
2022/12/07 01:41:16;;;;;;;24.33;15.32;;;;;;;1.99;100.00;100356.84;5093296;28;20035;-73
2022/12/07 01:44:15;;;;;;;23.33;14.73;;;;;;;2.00;100.00;100369.97;5092644;28;20089;-73
2022/12/07 01:46:42;;;;;;;26.75;15.25;;;;;;;1.98;100.00;100386.88;5092667;28;20366;-73
2022/12/07 01:49:22;;;;;;;22.88;15.27;;;;;;;1.87;100.00;100376.84;5094432;28;20695;-73
2022/12/07 01:51:50;;;;;;;24.50;15.15;;;;;;;1.75;100.00;100358.13;5091655;28;20828;-73
2022/12/07 01:54:16;;;;;;;24.13;14.57;;;;;;;1.81;100.00;100384.25;5094526;28;20039;-72
2022/12/07 01:56:50;;;;;;;23.35;15.65;;;;;;;1.76;100.00;100383.59;5092022;28;20369;-72
2022/12/07 01:59:17;;;;;;;23.23;14.63;;;;;;;1.69;100.00;100376.94;5092177;28;20020;-73
2022/12/07 02:01:43;;;;;;;23.42;14.65;;;;;;;1.55;100.00;100360.94;5092324;28;20435;-72
2022/12/07 02:04:10;;;;;;;23.15;14.75;;;;;;;1.43;100.00;100349.19;5091898;28;20081;-73
2022/12/07 02:06:36;;;;;;;21.70;14.40;;;;;;;1.52;100.00;100376.94;5091848;28;20095;-73
2022/12/07 02:09:02;;;;;;;23.02;14.20;;;;;;;1.40;100.00;100359.03;5090650;28;20035;-72
2022/12/07 02:11:28;;;;;;;22.88;14.13;;;;;;;1.41;100.00;100372.16;5094749;28;20111;-73
2022/12/07 02:13:54;;;;;;;20.77;12.98;;;;;;;1.24;100.00;100345.75;5091561;28;20044;-73
2022/12/07 02:16:40;;;;;;;22.52;13.98;;;;;;;1.34;100.00;100375.19;5092168;28;20031;-72
2022/12/07 02:19:06;;;;;;;19.58;13.45;;;;;;;1.30;100.00;100369.22;5087670;28;20055;-73
2022/12/07 02:21:46;;;;;;;22.65;13.88;;;;;;;1.27;100.00;100366.72;5091658;28;20120;-73
2022/12/07 02:24:18;;;;;;;22.60;13.70;;;;;;;1.24;100.00;100364.22;5090778;28;20042;-74
2022/12/07 02:26:53;;;;;;;20.42;12.88;;;;;;;1.27;100.00;100376.44;5089979;28;20039;-72
2022/12/07 02:29:32;;;;;;;20.92;13.57;;;;;;;1.25;100.00;100376.50;5088484;28;20036;-72
2022/12/07 02:32:11;;;;;;;19.88;13.95;;;;;;;1.13;100.00;100361.25;5089579;28;20031;-73
2022/12/07 02:34:42;;;;;;;21.63;12.82;;;;;;;1.17;100.00;100369.88;5091774;28;20051;-73
2022/12/07 02:37:36;;;;;;;19.10;13.00;;;;;;;1.14;100.00;100370.03;5090916;28;20040;-72
2022/12/07 02:40:14;;;;;;;18.92;12.32;;;;;;;1.13;100.00;100379.72;5090302;28;20036;-73
2022/12/07 02:42:45;;;;;;;19.25;13.38;;;;;;;0.97;100.00;100341.78;5090775;28;20056;-72
2022/12/07 02:45:15;;;;;;;19.23;13.18;;;;;;;1.08;100.00;100365.03;5091162;28;20055;-72
2022/12/07 02:47:43;;;;;;;20.90;13.38;;;;;;;1.08;100.00;100363.28;5091346;28;20032;-72
2022/12/07 02:50:09;;;;;;;25.10;13.70;;;;;;;1.05;100.00;100357.28;5089926;28;20039;-71
2022/12/07 02:52:34;;;;;;;21.23;13.82;;;;;;;1.04;100.00;100353.78;5090827;28;20427;-72
2022/12/07 02:55:00;;;;;;;22.17;13.13;;;;;;;0.92;100.00;100332.38;5096573;28;20031;-71
2022/12/07 02:57:46;;;;;;;23.77;13.93;;;;;;;1.09;100.00;100367.63;5090345;28;20024;-72
2022/12/07 03:00:16;;;;;;;25.55;13.57;;;;;;;1.05;100.00;100355.50;5089907;28;20052;-72
2022/12/07 03:03:01;;;;;;;20.48;13.25;;;;;;;1.05;100.00;100352.84;5089274;28;20051;-73
2022/12/07 03:05:44;;;;;;;20.33;13.13;;;;;;;1.05;100.00;100352.84;5093521;28;20104;-71
2022/12/07 03:08:28;;;;;;;20.05;12.85;;;;;;;1.04;100.00;100343.22;5091146;28;20827;-73
2022/12/07 03:11:03;;;;;;;20.10;12.25;;;;;;;1.05;100.00;100344.94;5088377;28;20034;-73
2022/12/07 03:13:33;;;;;;;20.20;13.40;;;;;;;1.07;100.00;100339.56;5091837;28;20042;-72
2022/12/07 03:16:14;;;;;;;18.55;11.88;;;;;;;1.07;100.00;100336.94;5089065;28;20032;-71
2022/12/07 03:18:56;;;;;;;19.65;12.00;;;;;;;1.07;100.00;100336.94;5087992;28;20023;-72
2022/12/07 03:21:26;;;;;;;18.55;11.75;;;;;;;1.07;100.00;100332.53;5088063;28;20031;-72
2022/12/07 03:23:56;;;;;;;19.88;11.48;;;;;;;1.01;100.00;100324.91;5090635;28;20027;-73
2022/12/07 03:26:29;;;;;;;19.50;11.77;;;;;;;1.04;100.00;100318.59;5090698;28;20032;-73
2022/12/07 03:29:01;;;;;;;18.70;12.57;;;;;;;1.05;100.00;100329.09;5089700;28;20968;-72
2022/12/07 03:31:33;;;;;;;19.02;11.82;;;;;;;1.06;100.00;100328.16;5090614;28;20024;-73
2022/12/07 03:34:09;;;;;;;18.30;12.25;;;;;;;0.86;100.00;100293.94;5088535;28;20039;-72
2022/12/07 03:36:41;;;;;;;19.02;11.27;;;;;;;1.20;100.00;100357.41;5088826;28;20073;-73
2022/12/07 03:39:27;;;;;;;19.38;12.15;;;;;;;1.10;100.00;100327.06;5092988;28;20065;-72
2022/12/07 03:41:54;;;;;;;20.67;11.73;;;;;;;1.23;100.00;100337.91;5089045;28;20426;-73
2022/12/07 03:44:22;;;;;;;19.75;12.40;;;;;;;1.23;100.00;100344.00;5090573;28;20048;-73
2022/12/07 03:47:16;;;;;;;20.98;11.45;;;;;;;1.27;100.00;100348.25;5090579;28;20464;-73
2022/12/07 03:49:56;;;;;;;16.95;11.27;;;;;;;1.26;100.00;100345.66;5091508;28;20035;-73
2022/12/07 03:52:47;;;;;;;19.05;11.20;;;;;;;1.29;100.00;100342.88;5092681;28;20073;-73
2022/12/07 03:55:13;;;;;;;17.50;10.38;;;;;;;1.31;100.00;100335.72;5090710;28;20047;-73
2022/12/07 03:57:41;;;;;;;16.08;9.93;;;;;;;1.32;100.00;100333.00;5092911;28;20024;-72
2022/12/07 04:00:09;;;;;;;17.60;11.23;;;;;;;1.36;100.00;100323.13;5095051;28;20527;-72
2022/12/07 04:02:35;;;;;;;16.83;9.73;;;;;;;1.44;100.00;100324.47;5090595;28;20503;-73
2022/12/07 04:05:01;;;;;;;18.40;10.27;;;;;;;1.41;100.00;100305.25;5089182;28;20043;-73
2022/12/07 04:07:27;;;;;;;16.23;9.93;;;;;;;1.51;100.00;100315.28;5090362;28;20042;-72
2022/12/07 04:09:54;;;;;;;18.52;10.13;;;;;;;1.52;100.00;100316.97;5091555;28;20024;-73
2022/12/07 04:12:20;;;;;;;19.67;10.38;;;;;;;1.46;100.00;100301.47;5094173;28;20040;-72
2022/12/07 04:14:46;;;;;;;17.15;10.70;;;;;;;1.35;100.00;100273.91;5090513;28;20762;-70
2022/12/07 04:17:11;;;;;;;19.83;10.70;;;;;;;1.55;100.00;100303.63;5093078;28;20107;-69
2022/12/07 04:19:37;;;;;;;16.83;9.82;;;;;;;1.73;100.00;100331.75;5096054;28;20380;-69
2022/12/07 04:22:04;;;;;;;13.95;9.05;;;;;;;1.77;100.00;100319.22;5094478;28;20035;-69
2022/12/07 04:24:30;;;;;;;17.60;9.57;;;;;;;1.65;100.00;100302.22;5091503;28;20157;-69
2022/12/07 04:26:55;;;;;;;15.50;10.27;;;;;;;1.50;100.00;100268.66;5095504;28;20132;-70
2022/12/07 04:29:21;;;;;;;14.50;9.52;;;;;;;1.84;100.00;100331.22;5094901;28;20468;-69
2022/12/07 04:31:47;;;;;;;16.23;9.65;;;;;;;1.84;100.00;100325.94;5093995;28;20112;-69
2022/12/07 04:34:13;;;;;;;17.58;9.98;;;;;;;1.86;100.00;100321.38;5093298;28;20409;-69
2022/12/07 04:36:39;;;;;;;16.77;9.88;;;;;;;1.72;100.00;100298.34;5091226;28;20059;-69
2022/12/07 04:39:06;;;;;;;19.35;10.50;;;;;;;1.79;100.00;100294.44;5094349;28;20482;-69
2022/12/07 04:41:32;;;;;;;19.52;11.35;;;;;;;1.85;100.00;100312.63;5090980;28;20028;-69
2022/12/07 04:44:00;;;;;;;17.70;10.55;;;;;;;1.91;100.00;100304.34;5094160;28;20047;-68
2022/12/07 04:46:27;;;;;;;20.05;11.68;;;;;;;1.86;100.00;100281.72;5096263;28;20465;-69
2022/12/07 04:48:53;;;;;;;18.55;9.82;;;;;;;1.83;100.00;100266.03;5094645;28;20042;-69
2022/12/07 04:51:22;;;;;;;18.13;11.68;;;;;;;2.00;100.00;100280.06;5091855;28;20043;-69
2022/12/07 04:53:47;;;;;;;19.85;11.30;;;;;;;2.08;100.00;100277.00;5093254;28;20108;-69
2022/12/07 04:56:14;;;;;;;19.42;11.45;;;;;;;2.14;100.00;100279.31;5095892;28;20114;-69
2022/12/07 04:58:39;;;;;;;20.67;11.73;;;;;;;2.05;100.00;100274.53;5092102;28;20027;-68
2022/12/07 05:01:05;;;;;;;17.17;10.93;;;;;;;2.14;100.00;100295.19;5092064;28;20142;-69
2022/12/07 05:03:30;;;;;;;20.98;11.73;;;;;;;2.10;100.00;100285.72;5092105;28;20438;-70
2022/12/07 05:05:56;;;;;;;17.92;11.38;;;;;;;2.15;100.00;100295.13;5090627;28;20032;-70
2022/12/07 05:08:21;;;;;;;19.95;10.82;;;;;;;2.07;100.00;100289.38;5091946;28;20019;-70
2022/12/07 05:10:48;;;;;;;19.38;11.55;;;;;;;2.13;100.00;100307.56;5091539;28;20020;-70
2022/12/07 05:13:14;;;;;;;33.72;18.17;;;;;;;2.24;100.00;100321.09;5093744;28;20404;-69
2022/12/07 05:15:40;;;;;;;45.17;23.67;;;;;;;2.14;100.00;100296.06;5092418;28;20065;-69
2022/12/07 05:18:05;;;;;;;38.85;20.85;;;;;;;2.01;100.00;100276.50;5095747;28;20423;-70
2022/12/07 05:20:31;;;;;;;36.08;19.77;;;;;;;2.04;100.00;100284.25;5092399;28;20028;-69
2022/12/07 05:22:58;;;;;;;32.55;19.42;;;;;;;2.12;100.00;100302.34;5091824;28;20035;-70
2022/12/07 05:25:24;;;;;;;33.13;18.23;;;;;;;2.04;100.00;100288.69;5091504;28;20036;-70
2022/12/07 05:27:49;;;;;;;27.20;15.60;;;;;;;2.16;100.00;100323.25;5091867;28;20032;-70
2022/12/07 05:30:15;;;;;;;23.67;13.85;;;;;;;2.11;100.00;100320.03;5091216;28;20039;-70
2022/12/07 05:32:40;;;;;;;22.25;13.30;;;;;;;2.10;100.00;100326.22;5091462;28;20027;-70
2022/12/07 05:35:06;;;;;;;24.48;14.25;;;;;;;2.11;100.00;100324.47;5093255;28;20040;-70
2022/12/07 05:37:31;;;;;;;20.42;11.50;;;;;;;1.96;100.00;100302.31;5091565;28;20056;-68
2022/12/07 05:39:57;;;;;;;20.15;12.25;;;;;;;2.08;100.00;100319.31;5093757;28;20020;-70
2022/12/07 05:42:22;;;;;;;21.23;12.25;;;;;;;2.14;100.00;100322.50;5091618;28;20395;-69
2022/12/07 05:44:48;;;;;;;21.92;13.25;;;;;;;2.09;100.00;100313.94;5094070;28;20144;-70
2022/12/07 05:47:15;;;;;;;22.77;13.20;;;;;;;2.20;100.00;100326.63;5091290;28;20032;-69
2022/12/07 05:49:40;;;;;;;24.42;15.35;;;;;;;2.22;100.00;100335.31;5091762;28;20039;-70
2022/12/07 05:52:06;;;;;;;29.92;17.05;;;;;;;2.41;100.00;100329.91;5090293;28;20031;-69
2022/12/07 05:54:31;;;;;;;24.52;15.00;;;;;;;2.48;100.00;100336.56;5092615;28;20101;-69
2022/12/07 05:56:57;;;;;;;26.50;15.55;;;;;;;2.47;100.00;100334.84;5090900;28;20431;-70
2022/12/07 05:59:23;;;;;;;27.13;16.05;;;;;;;2.47;100.00;100334.84;5092268;28;20047;-70
2022/12/07 06:01:57;;;;;;;27.33;15.60;;;;;;;2.44;100.00;100333.22;5091781;28;20411;-69
2022/12/07 06:04:24;;;;;;;28.38;15.20;;;;;;;2.47;100.00;100333.06;5092837;28;20424;-70
2022/12/07 06:06:50;;;;;;;23.25;14.25;;;;;;;2.44;100.00;100343.81;5091766;28;20119;-68
2022/12/07 06:09:16;;;;;;;24.75;15.57;;;;;;;2.33;100.00;100325.00;5093537;28;20128;-70
2022/12/07 06:14:25;;;;;;;24.80;13.85;;;;;;;2.39;100.00;100344.03;5093759;28;20027;-68
2022/12/07 06:16:51;;;;;;;26.15;15.13;;;;;;;2.44;100.00;100351.75;5091747;28;20027;-70
2022/12/07 06:19:17;;;;;;;27.33;15.65;;;;;;;2.28;100.00;100329.69;5093167;28;20032;-73
2022/12/07 06:21:42;;;;;;;27.27;15.73;;;;;;;2.43;100.00;100347.41;5093663;28;20020;-73
2022/12/07 06:24:11;;;;;;;24.08;14.80;;;;;;;2.31;100.00;100327.75;5084081;28;20696;-72
2022/12/07 06:26:36;;;;;;;24.05;13.68;;;;;;;2.37;100.00;100331.84;5087948;28;20059;-72
2022/12/07 06:29:02;;;;;;;23.85;14.93;;;;;;;2.47;100.00;100342.78;5085169;28;20421;-71
2022/12/07 06:31:27;;;;;;;23.50;15.10;;;;;;;2.41;100.00;100338.66;5085115;28;20036;-73
2022/12/07 06:33:58;;;;;;;26.60;15.88;;;;;;;2.32;100.00;100320.63;5091424;28;20110;-73
2022/12/07 06:36:23;;;;;;;24.17;14.60;;;;;;;2.38;100.00;100329.13;5085858;28;20149;-72
2022/12/07 06:38:49;;;;;;;27.48;15.93;;;;;;;2.53;100.00;100348.59;5089217;28;20479;-72
2022/12/07 06:41:14;;;;;;;23.45;14.38;;;;;;;2.60;100.00;100354.41;5088909;28;20027;-72
2022/12/07 06:43:40;;;;;;;28.67;16.20;;;;;;;2.63;100.00;100352.44;5088346;28;20031;-74
2022/12/07 06:46:05;;;;;;;24.30;15.13;;;;;;;2.69;100.00;100352.13;5092907;28;20024;-74
2022/12/07 06:48:32;;;;;;;24.85;13.60;;;;;;;2.52;100.00;100316.91;5091975;28;20043;-73
2022/12/07 06:50:57;;;;;;;24.58;14.70;;;;;;;2.76;100.00;100348.19;5090819;28;20055;-73
2022/12/07 06:53:23;;;;;;;21.80;14.50;;;;;;;2.80;100.00;100349.72;5090893;28;20055;-73
2022/12/07 06:55:49;;;;;;;24.52;14.63;;;;;;;2.84;100.00;100350.41;5092340;28;20023;-74
2022/12/07 06:58:14;;;;;;;23.38;14.77;;;;;;;2.81;100.00;100337.34;5092253;28;20024;-74
2022/12/07 07:00:40;;;;;;;23.95;14.57;;;;;;;2.94;100.00;100352.47;5089526;28;20443;-73
2022/12/07 07:03:06;;;;;;;25.55;15.40;;;;;;;2.99;100.00;100349.53;5090566;28;20032;-73
2022/12/07 07:05:31;;;;;;;23.30;14.20;;;;;;;3.07;100.00;100342.88;5089534;28;20040;-74
2022/12/07 07:07:56;;;;;;;24.88;15.13;;;;;;;3.03;100.00;100328.09;5090635;28;20527;-72
2022/12/07 07:10:22;;;;;;;21.90;13.50;;;;;;;3.23;100.00;100353.44;5091199;28;20035;-73
2022/12/07 07:12:47;;;;;;;25.95;15.35;;;;;;;2.97;100.00;100307.25;5089554;28;20020;-73
2022/12/07 07:15:13;;;;;;;25.55;14.95;;;;;;;3.28;100.00;100338.13;5089953;28;20023;-72
2022/12/07 07:17:38;;;;;;;23.05;14.50;;;;;;;3.23;100.00;100334.91;5092036;28;20020;-73
2022/12/07 07:20:04;;;;;;;26.25;15.15;;;;;;;3.35;100.00;100339.50;5089914;28;20067;-74
2022/12/07 07:22:30;;;;;;;23.00;14.65;;;;;;;3.45;100.00;100340.69;5090155;28;20154;-74
2022/12/07 07:24:55;;;;;;;23.15;14.95;;;;;;;3.56;100.00;100338.22;5089760;28;20731;-73
2022/12/07 07:27:21;;;;;;;23.08;14.63;;;;;;;3.73;100.00;100364.59;5089970;28;20020;-73
2022/12/07 07:29:46;;;;;;;26.63;15.32;;;;;;;3.73;100.00;100336.28;5091737;28;20093;-74
2022/12/07 07:32:12;;;;;;;24.98;16.15;;;;;;;3.91;100.00;100360.88;5087556;28;20047;-74
2022/12/07 07:34:37;;;;;;;27.00;15.27;;;;;;;3.92;100.00;100339.56;5089085;28;20431;-74
2022/12/07 07:37:03;;;;;;;22.75;14.45;;;;;;;4.07;100.00;100340.44;5087290;28;20027;-74
2022/12/07 07:39:28;;;;;;;24.50;14.05;;;;;;;4.10;100.00;100340.25;5089763;28;20026;-75
2022/12/07 07:41:53;;;;;;;28.55;15.77;;;;;;;4.26;100.00;100351.63;5089885;28;20039;-74
2022/12/07 07:44:19;;;;;;;25.10;14.98;;;;;;;4.28;100.00;100344.41;5090522;28;20051;-74
2022/12/07 07:46:44;;;;;;;23.17;14.13;;;;;;;4.32;100.00;100348.59;5091435;28;20024;-74
2022/12/07 07:49:10;;;;;;;26.85;15.02;;;;;;;4.32;100.00;100349.44;5090038;28;20028;-74
2022/12/07 07:51:36;;;;;;;21.45;13.63;;;;;;;4.51;100.00;100370.38;5091000;28;20662;-74
2022/12/07 07:54:02;;;;;;;25.05;14.68;;;;;;;4.45;100.00;100353.03;5090345;28;20024;-74
2022/12/07 07:56:27;;;;;;;23.10;15.00;;;;;;;4.63;100.00;100378.47;5091179;28;20035;-74
2022/12/07 07:58:53;;;;;;;23.80;13.25;;;;;;;4.65;100.00;100373.03;5089717;28;20023;-73
2022/12/07 08:01:19;;;;;;;22.52;13.68;;;;;;;4.58;100.00;100347.84;5088367;28;20035;-73
2022/12/07 08:03:46;;;;;;;23.02;14.90;;;;;;;4.66;100.00;100358.81;5092651;28;20016;-73
2022/12/07 08:06:12;;;;;;;27.92;15.77;;;;;;;4.98;100.00;100370.91;5089866;28;20032;-74
2022/12/07 08:08:38;;;;;;;46.38;24.92;;;;;;;5.10;100.00;100372.78;5089656;28;20024;-74
2022/12/07 08:11:07;;;;;;;44.28;23.50;;;;;;;5.16;100.00;100353.75;5089642;28;20035;-75
2022/12/07 08:13:32;;;;;;;36.53;20.38;;;;;;;5.03;100.00;100336.91;5089848;28;20019;-74
2022/12/07 08:15:58;;;;;;;21.55;13.57;;;;;;;5.32;100.00;100359.78;5088779;28;20049;-74
2022/12/07 08:18:24;;;;;;;23.45;12.77;;;;;;;5.26;100.00;100336.28;5089436;28;20036;-74
2022/12/07 08:20:49;;;;;;;20.45;12.70;;;;;;;5.37;100.00;100333.75;5089960;28;20031;-74
2022/12/07 08:23:14;;;;;;;18.95;12.05;;;;;;;5.66;100.00;100358.38;5089927;28;20464;-75
2022/12/07 08:25:40;;;;;;;16.05;11.05;;;;;;;5.82;100.00;100367.94;5089948;28;20038;-74
2022/12/07 08:28:06;;;;;;;18.05;11.73;;;;;;;5.97;100.00;100361.56;5091818;28;20043;-74
2022/12/07 08:30:32;;;;;;;19.52;12.10;;;;;;;5.91;100.00;100354.03;5090555;28;20029;-74
2022/12/07 08:32:57;;;;;;;20.85;12.32;;;;;;;5.87;100.00;100367.63;5089416;28;20097;-74
2022/12/07 08:35:23;;;;;;;16.73;11.60;;;;;;;5.80;100.00;100359.16;5090013;28;20071;-69
2022/12/07 08:37:49;;;;;;;20.13;12.90;;;;;;;5.75;100.00;100355.97;5088045;28;20036;-69
2022/12/07 08:40:15;;;;;;;21.08;14.25;;;;;;;5.92;100.00;100362.84;5087811;28;20042;-69
2022/12/07 08:42:50;;;;;;;18.85;12.75;;;;;;;6.04;100.00;100365.53;5088559;28;20028;-69
2022/12/07 08:45:17;;;;;;;19.95;12.48;;;;;;;6.13;100.00;100359.56;5089049;28;20512;-69
2022/12/07 08:48:10;;;;;;;19.83;12.65;;;;;;;6.26;100.00;100384.38;5088325;28;20174;-69
2022/12/07 08:50:37;;;;;;;18.20;11.80;;;;;;;6.36;100.00;100379.28;5089886;28;20367;-69
2022/12/07 08:53:04;;;;;;;19.27;12.13;;;;;;;6.33;100.00;100359.06;5089317;28;20468;-69
2022/12/07 08:55:30;;;;;;;26.42;16.55;;;;;;;6.37;100.00;100370.31;5090594;28;20484;-69
2022/12/07 08:57:58;;;;;;;23.52;14.68;;;;;;;6.31;100.00;100365.41;5089698;28;20028;-69
2022/12/07 09:00:24;;;;;;;22.13;13.80;;;;;;;6.32;100.00;100381.28;5088942;28;20591;-69
2022/12/07 09:02:49;;;;;;;24.60;14.93;;;;;;;6.29;100.00;100370.84;5089130;28;20111;-69
2022/12/07 09:05:15;;;;;;;22.25;14.18;;;;;;;6.35;100.00;100367.75;5094968;28;20040;-69
2022/12/07 09:07:42;;;;;;;24.63;14.35;;;;;;;6.35;100.00;100351.78;5089633;28;20028;-69
2022/12/07 09:10:07;;;;;;;21.25;14.10;;;;;;;6.51;100.00;100373.72;5090924;28;20081;-70
2022/12/07 09:12:33;;;;;;;25.25;14.95;;;;;;;6.53;100.00;100357.63;5090997;28;20020;-70
2022/12/07 09:15:00;;;;;;;23.17;14.63;;;;;;;6.59;100.00;100346.53;5090099;28;20028;-70
2022/12/07 09:17:26;;;;;;;24.52;15.38;;;;;;;6.73;100.00;100352.59;5092789;28;20082;-70
2022/12/07 09:19:51;;;;;;;24.35;15.07;;;;;;;6.69;100.00;100344.94;5091531;28;20667;-70
2022/12/07 09:22:17;;;;;;;25.77;16.00;;;;;;;6.92;100.00;100344.13;5093898;28;20048;-70
2022/12/07 09:24:43;;;;;;;23.42;15.65;;;;;;;7.18;99.49;100320.88;5090488;28;20024;-70
2022/12/07 09:27:08;;;;;;;24.13;14.48;;;;;;;7.38;99.69;100349.63;5091748;28;20024;-70
2022/12/07 09:29:34;;;;;;;25.10;14.27;;;;;;;7.41;99.56;100342.22;5088410;28;20077;-70
2022/12/07 09:31:59;;;;;;;24.67;15.05;;;;;;;7.50;97.38;100297.97;5090426;28;20047;-71
2022/12/07 09:34:26;;;;;;;24.65;15.18;;;;;;;7.82;95.51;100331.09;5090286;28;20067;-70
2022/12/07 09:36:51;;;;;;;26.48;15.65;;;;;;;7.66;95.92;100323.41;5089025;28;20031;-70
2022/12/07 09:39:17;;;;;;;25.45;15.35;;;;;;;8.02;95.35;100336.59;5089733;28;20377;-71
2022/12/07 09:41:45;;;;;;;23.63;14.93;;;;;;;7.85;96.31;100307.69;5088765;28;20036;-70
2022/12/07 09:44:23;;;;;;;23.58;15.15;;;;;;;8.14;94.63;100345.50;5089112;28;20036;-70
2022/12/07 09:46:50;;;;;;;25.17;14.73;;;;;;;8.18;94.05;100342.47;5092681;28;20031;-71
2022/12/07 09:49:29;;;;;;;23.98;14.38;;;;;;;8.38;91.58;100335.59;5090745;28;20034;-71
2022/12/07 09:52:07;;;;;;;25.63;15.35;;;;;;;8.25;92.28;100346.41;5088307;28;20031;-71
2022/12/07 09:54:36;;;;;;;23.08;13.90;;;;;;;8.37;91.82;100342.78;5090722;28;20339;-71
2022/12/07 09:57:02;;;;;;;22.42;14.48;;;;;;;8.37;91.77;100341.91;5091200;28;20603;-71
2022/12/07 09:59:27;;;;;;;21.98;14.15;;;;;;;8.37;91.68;100337.44;5090077;28;20024;-71
2022/12/07 10:01:55;;;;;;;22.75;14.82;;;;;;;8.33;91.41;100335.13;5089793;28;20016;-71
2022/12/07 10:04:23;;;;;;;21.15;13.68;;;;;;;8.45;88.09;100320.81;5090146;28;20028;-71
2022/12/07 10:06:50;;;;;;;21.85;12.82;;;;;;;8.56;87.75;100336.81;5090557;28;20034;-70
2022/12/07 10:09:18;;;;;;;23.35;13.13;;;;;;;8.57;86.71;100327.81;5090060;28;20483;-70
2022/12/07 10:12:08;;;;;;;20.08;13.35;;;;;;;8.50;88.70;100339.97;5091920;28;20036;-70
2022/12/07 10:14:36;;;;;;;18.80;11.93;;;;;;;8.47;85.75;100334.88;5089354;28;20048;-71
2022/12/07 10:17:22;;;;;;;17.73;11.70;;;;;;;8.26;86.84;100312.53;5093749;28;20288;-71
2022/12/07 10:19:47;;;;;;;20.83;12.68;;;;;;;8.34;87.91;100335.00;5090256;28;20178;-71
2022/12/07 10:22:16;;;;;;;18.60;12.35;;;;;;;8.17;87.91;100308.72;5089195;28;20115;-70
2022/12/07 10:24:46;;;;;;;18.33;12.07;;;;;;;8.46;85.76;100335.84;5089410;28;20488;-70
2022/12/07 10:27:26;;;;;;;20.10;12.43;;;;;;;8.48;83.79;100318.72;5092041;28;20047;-71
2022/12/07 10:29:53;;;;;;;20.17;11.98;;;;;;;8.56;82.22;100323.47;5087866;28;20545;-71
2022/12/07 10:32:18;;;;;;;20.83;12.88;;;;;;;8.55;82.05;100319.09;5089867;28;20024;-70
2022/12/07 10:34:44;;;;;;;18.83;12.40;;;;;;;8.52;81.49;100297.94;5090614;28;20533;-70
2022/12/07 10:37:13;;;;;;;19.25;12.02;;;;;;;8.58;81.09;100318.84;5090699;28;20028;-71
2022/12/07 10:39:46;;;;;;;20.27;13.18;;;;;;;8.45;83.26;100324.31;5089419;28;20035;-71
2022/12/07 10:42:25;;;;;;;17.63;11.70;;;;;;;8.51;81.45;100318.47;5088851;28;20444;-70
2022/12/07 10:45:07;;;;;;;20.02;11.70;;;;;;;8.74;79.46;100320.16;5090307;28;20427;-73
2022/12/07 10:47:53;;;;;;;20.35;12.65;;;;;;;8.55;80.29;100319.09;5088422;28;20480;-73
2022/12/07 10:50:31;;;;;;;19.10;13.27;;;;;;;8.70;77.65;100316.03;5087587;28;20035;-70
2022/12/07 10:53:14;;;;;;;19.45;13.55;;;;;;;8.54;78.09;100318.22;5088753;28;20059;-70
2022/12/07 10:56:16;;;;;;;17.15;12.30;;;;;;;8.51;77.82;100313.13;5087597;28;20500;-70
2022/12/07 10:59:14;;;;;;;20.90;13.43;;;;;;;8.56;77.75;100316.31;5102994;28;20055;-70
2022/12/07 11:01:51;;;;;;;21.08;13.68;;;;;;;8.34;79.74;100313.63;5076176;28;20450;-70
2022/12/07 11:04:35;;;;;;;18.30;12.40;;;;;;;8.27;81.92;100312.41;5090390;28;20518;-70
2022/12/07 11:07:09;;;;;;;20.57;14.30;;;;;;;8.22;83.13;100306.56;5091331;28;20350;-71
2022/12/07 11:10:01;;;;;;;20.27;13.93;;;;;;;8.20;83.42;100304.94;5090656;28;20637;-73
2022/12/07 11:12:32;;;;;;;19.30;13.25;;;;;;;8.57;79.31;100306.44;5088845;28;20034;-73
2022/12/07 11:15:10;;;;;;;20.33;13.65;;;;;;;8.51;80.17;100302.44;5087358;28;20084;-73
2022/12/07 11:18:00;;;;;;;16.92;12.05;;;;;;;8.56;81.16;100299.41;5090681;28;20452;-73
2022/12/07 11:20:39;;;;;;;21.80;12.90;;;;;;;8.70;75.85;100296.47;5085348;28;20024;-74
2022/12/07 11:23:20;;;;;;;19.38;13.02;;;;;;;8.55;78.07;100295.03;5080921;28;20085;-71